<?xml version="1.0" encoding="UTF-8" ?>
<gpx xmlns="http://www.topografix.com/GPX/1/1" version="1.1" xmlns:xsi="http://www.w3.org/2001/XMLSchema-instance" xsi:schemaLocation="http://www.topografix.com/GPX/1/1 http://www.topografix.com/GPX/1/1/gpx.xsd">
	<trk>
		<name>Heather Park</name>
		<trkseg>
			<trkpt lat="48.03930423" lon="-123.43174806">
				<ele>570.0</ele>
				<time>2013-11-11T08:16:47Z</time>
				<cmt>speed=0</cmt>
				<hdop>19</hdop>
			</trkpt>
			<trkpt lat="48.03930895" lon="-123.43170918">
				<ele>582.2999877929688</ele>
				<time>2013-11-11T08:17:29Z</time>
				<cmt>speed=0</cmt>
				<hdop>17</hdop>
			</trkpt>
			<trkpt lat="48.03879072" lon="-123.43177475">
				<ele>576.5</ele>
				<time>2013-11-11T08:19:19Z</time>
				<cmt>speed=0.901388</cmt>
				<hdop>19</hdop>
			</trkpt>
			<trkpt lat="48.03922184" lon="-123.4326583">
				<ele>497.29998779296875</ele>
				<time>2013-11-11T08:20:06Z</time>
				<cmt>speed=1</cmt>
				<hdop>18</hdop>
			</trkpt>
			<trkpt lat="48.03942032" lon="-123.43295198">
				<ele>504.0</ele>
				<time>2013-11-11T08:20:37Z</time>
				<cmt>speed=1.25</cmt>
				<hdop>18</hdop>
			</trkpt>
			<trkpt lat="48.0396481" lon="-123.43452301">
				<ele>573.5</ele>
				<time>2013-11-11T08:23:53Z</time>
				<cmt>speed=1</cmt>
				<hdop>18</hdop>
			</trkpt>
			<trkpt lat="48.03980053" lon="-123.43571254">
				<ele>585.2999877929688</ele>
				<time>2013-11-11T08:25:38Z</time>
				<cmt>speed=1.25</cmt>
				<hdop>19</hdop>
			</trkpt>
			<trkpt lat="48.03959278" lon="-123.43670031">
				<ele>596.0</ele>
				<time>2013-11-11T08:27:01Z</time>
				<cmt>speed=1</cmt>
				<hdop>19</hdop>
			</trkpt>
			<trkpt lat="48.03922174" lon="-123.43727805">
				<ele>590.5</ele>
				<time>2013-11-11T08:28:10Z</time>
				<cmt>speed=0.75</cmt>
				<hdop>19</hdop>
			</trkpt>
			<trkpt lat="48.03918486" lon="-123.43765414">
				<ele>590.7999877929688</ele>
				<time>2013-11-11T08:28:59Z</time>
				<cmt>speed=0.75</cmt>
				<hdop>18</hdop>
			</trkpt>
			<trkpt lat="48.03894573" lon="-123.4376782">
				<ele>644.5</ele>
				<time>2013-11-11T08:29:47Z</time>
				<cmt>speed=1</cmt>
				<hdop>19</hdop>
			</trkpt>
			<trkpt lat="48.03874985" lon="-123.43802042">
				<ele>650.9000244140625</ele>
				<time>2013-11-11T08:31:11Z</time>
				<cmt>speed=1.5</cmt>
				<hdop>17</hdop>
			</trkpt>
			<trkpt lat="48.03831139" lon="-123.43829382">
				<ele>663.0999755859375</ele>
				<time>2013-11-11T08:32:12Z</time>
				<cmt>speed=1.5</cmt>
				<hdop>19</hdop>
			</trkpt>
			<trkpt lat="48.03773259" lon="-123.43841897">
				<ele>646.0</ele>
				<time>2013-11-11T08:33:09Z</time>
				<cmt>speed=0.5</cmt>
				<hdop>19</hdop>
			</trkpt>
			<trkpt lat="48.03759232" lon="-123.43882183">
				<ele>652.2999877929688</ele>
				<time>2013-11-11T08:33:47Z</time>
				<cmt>speed=0.5</cmt>
				<hdop>19</hdop>
			</trkpt>
			<trkpt lat="48.03669594" lon="-123.43928785">
				<ele>630.4000244140625</ele>
				<time>2013-11-11T08:35:15Z</time>
				<cmt>speed=1</cmt>
				<hdop>19</hdop>
			</trkpt>
			<trkpt lat="48.03653303" lon="-123.4394896">
				<ele>637.0999755859375</ele>
				<time>2013-11-11T08:35:34Z</time>
				<cmt>speed=0.5</cmt>
				<hdop>19</hdop>
			</trkpt>
			<trkpt lat="48.03601327" lon="-123.43967413">
				<ele>683.2000122070313</ele>
				<time>2013-11-11T08:36:46Z</time>
				<cmt>speed=0.75</cmt>
				<hdop>19</hdop>
			</trkpt>
			<trkpt lat="48.03590907" lon="-123.43966467">
				<ele>695.5999755859375</ele>
				<time>2013-11-11T08:37:46Z</time>
				<cmt>speed=1</cmt>
				<hdop>19</hdop>
			</trkpt>
			<trkpt lat="48.03597061" lon="-123.44048722">
				<ele>682.7000122070313</ele>
				<time>2013-11-11T08:38:55Z</time>
				<cmt>speed=0.75</cmt>
				<hdop>15</hdop>
			</trkpt>
			<trkpt lat="48.03571186" lon="-123.44124979">
				<ele>697.7999877929688</ele>
				<time>2013-11-11T08:39:36Z</time>
				<cmt>speed=1.5</cmt>
				<hdop>18</hdop>
			</trkpt>
			<trkpt lat="48.03567335" lon="-123.44156682">
				<ele>724.9000244140625</ele>
				<time>2013-11-11T08:40:32Z</time>
				<cmt>speed=0.75</cmt>
				<hdop>19</hdop>
			</trkpt>
			<trkpt lat="48.03540807" lon="-123.44255045">
				<ele>704.7000122070313</ele>
				<time>2013-11-11T08:41:36Z</time>
				<cmt>speed=3.91312</cmt>
				<hdop>18</hdop>
			</trkpt>
			<trkpt lat="48.03564346" lon="-123.44278978">
				<ele>734.7000122070313</ele>
				<time>2013-11-11T08:42:35Z</time>
				<cmt>speed=1.58114</cmt>
				<hdop>12</hdop>
			</trkpt>
			<trkpt lat="48.03546579" lon="-123.44390775">
				<ele>715.4000244140625</ele>
				<time>2013-11-11T08:43:35Z</time>
				<cmt>speed=1.58114</cmt>
				<hdop>18</hdop>
			</trkpt>
			<trkpt lat="48.03540504" lon="-123.44390177">
				<ele>738.4000244140625</ele>
				<time>2013-11-11T08:44:35Z</time>
				<cmt>speed=0.5</cmt>
				<hdop>15</hdop>
			</trkpt>
			<trkpt lat="48.03528283" lon="-123.44365321">
				<ele>763.2999877929688</ele>
				<time>2013-11-11T08:45:44Z</time>
				<cmt>speed=0.707107</cmt>
				<hdop>19</hdop>
			</trkpt>
			<trkpt lat="48.03492721" lon="-123.44377294">
				<ele>735.5999755859375</ele>
				<time>2013-11-11T08:46:41Z</time>
				<cmt>speed=1</cmt>
				<hdop>17</hdop>
			</trkpt>
			<trkpt lat="48.03466343" lon="-123.44360076">
				<ele>733.7999877929688</ele>
				<time>2013-11-11T08:47:35Z</time>
				<cmt>speed=1</cmt>
				<hdop>17</hdop>
			</trkpt>
			<trkpt lat="48.03411751" lon="-123.44325712">
				<ele>795.5</ele>
				<time>2013-11-11T08:48:38Z</time>
				<cmt>speed=1.58114</cmt>
				<hdop>15</hdop>
			</trkpt>
			<trkpt lat="48.03373551" lon="-123.44353758">
				<ele>810.4000244140625</ele>
				<time>2013-11-11T08:49:39Z</time>
				<cmt>speed=0.707107</cmt>
				<hdop>16</hdop>
			</trkpt>
			<trkpt lat="48.03400151" lon="-123.44392359">
				<ele>849.0</ele>
				<time>2013-11-11T08:50:37Z</time>
				<cmt>speed=1.11803</cmt>
				<hdop>15</hdop>
			</trkpt>
			<trkpt lat="48.03406495" lon="-123.44504305">
				<ele>792.4000244140625</ele>
				<time>2013-11-11T08:51:41Z</time>
				<cmt>speed=2.5</cmt>
				<hdop>16</hdop>
			</trkpt>
			<trkpt lat="48.0339788" lon="-123.44538133">
				<ele>784.0</ele>
				<time>2013-11-11T08:52:42Z</time>
				<cmt>speed=0.75</cmt>
				<hdop>17</hdop>
			</trkpt>
			<trkpt lat="48.03402781" lon="-123.44537143">
				<ele>795.0999755859375</ele>
				<time>2013-11-11T08:53:37Z</time>
				<cmt>speed=0</cmt>
				<hdop>13</hdop>
			</trkpt>
			<trkpt lat="48.03376195" lon="-123.44598396">
				<ele>841.0</ele>
				<time>2013-11-11T08:54:37Z</time>
				<cmt>speed=1.25</cmt>
				<hdop>11</hdop>
			</trkpt>
			<trkpt lat="48.03354792" lon="-123.44579464">
				<ele>794.0</ele>
				<time>2013-11-11T08:55:38Z</time>
				<cmt>speed=1.80278</cmt>
				<hdop>16</hdop>
			</trkpt>
			<trkpt lat="48.0333507" lon="-123.44510377">
				<ele>844.4000244140625</ele>
				<time>2013-11-11T08:56:38Z</time>
				<cmt>speed=1.11803</cmt>
				<hdop>19</hdop>
			</trkpt>
			<trkpt lat="48.03258405" lon="-123.44494812">
				<ele>826.0</ele>
				<time>2013-11-11T08:57:39Z</time>
				<cmt>speed=1.11803</cmt>
				<hdop>14</hdop>
			</trkpt>
			<trkpt lat="48.03255896" lon="-123.44492749">
				<ele>842.5</ele>
				<time>2013-11-11T08:58:40Z</time>
				<cmt>speed=1.41421</cmt>
				<hdop>19</hdop>
			</trkpt>
			<trkpt lat="48.03210474" lon="-123.44499671">
				<ele>873.0999755859375</ele>
				<time>2013-11-11T08:59:41Z</time>
				<cmt>speed=0.5</cmt>
				<hdop>12</hdop>
			</trkpt>
			<trkpt lat="48.03199094" lon="-123.44527614">
				<ele>882.0</ele>
				<time>2013-11-11T09:00:41Z</time>
				<cmt>speed=0.5</cmt>
				<hdop>14</hdop>
			</trkpt>
			<trkpt lat="48.03244847" lon="-123.44582193">
				<ele>857.0999755859375</ele>
				<time>2013-11-11T09:01:40Z</time>
				<cmt>speed=3.16228</cmt>
				<hdop>8</hdop>
			</trkpt>
			<trkpt lat="48.0324896" lon="-123.44636229">
				<ele>871.2000122070313</ele>
				<time>2013-11-11T09:02:41Z</time>
				<cmt>speed=0.25</cmt>
				<hdop>14</hdop>
			</trkpt>
			<trkpt lat="48.03251074" lon="-123.44673077">
				<ele>888.5</ele>
				<time>2013-11-11T09:03:43Z</time>
				<cmt>speed=0</cmt>
				<hdop>18</hdop>
			</trkpt>
			<trkpt lat="48.03246961" lon="-123.44636524">
				<ele>869.7000122070313</ele>
				<time>2013-11-11T09:04:43Z</time>
				<cmt>speed=1.03078</cmt>
				<hdop>16</hdop>
			</trkpt>
			<trkpt lat="48.03218173" lon="-123.44704614">
				<ele>893.9000244140625</ele>
				<time>2013-11-11T09:05:48Z</time>
				<cmt>speed=1</cmt>
				<hdop>18</hdop>
			</trkpt>
			<trkpt lat="48.03226126" lon="-123.44680955">
				<ele>894.5999755859375</ele>
				<time>2013-11-11T09:06:40Z</time>
				<cmt>speed=4.12311</cmt>
				<hdop>14</hdop>
			</trkpt>
			<trkpt lat="48.03208555" lon="-123.44680374">
				<ele>913.4000244140625</ele>
				<time>2013-11-11T09:07:43Z</time>
				<cmt>speed=0</cmt>
				<hdop>17</hdop>
			</trkpt>
			<trkpt lat="48.03188947" lon="-123.44649635">
				<ele>926.2999877929688</ele>
				<time>2013-11-11T09:08:43Z</time>
				<cmt>speed=1.11803</cmt>
				<hdop>12</hdop>
			</trkpt>
			<trkpt lat="48.03145375" lon="-123.44734241">
				<ele>881.5</ele>
				<time>2013-11-11T09:09:44Z</time>
				<cmt>speed=0.5</cmt>
				<hdop>16</hdop>
			</trkpt>
			<trkpt lat="48.03087029" lon="-123.44734827">
				<ele>914.0999755859375</ele>
				<time>2013-11-11T09:10:45Z</time>
				<cmt>speed=0.707107</cmt>
				<hdop>18</hdop>
			</trkpt>
			<trkpt lat="48.03091004" lon="-123.44728472">
				<ele>924.5999755859375</ele>
				<time>2013-11-11T09:11:46Z</time>
				<cmt>speed=2.3585</cmt>
				<hdop>17</hdop>
			</trkpt>
			<trkpt lat="48.03048332" lon="-123.44699243">
				<ele>977.9000244140625</ele>
				<time>2013-11-11T09:12:47Z</time>
				<cmt>speed=0.707107</cmt>
				<hdop>18</hdop>
			</trkpt>
			<trkpt lat="48.03004449" lon="-123.4471583">
				<ele>953.0999755859375</ele>
				<time>2013-11-11T09:13:55Z</time>
				<cmt>speed=0.75</cmt>
				<hdop>17</hdop>
			</trkpt>
			<trkpt lat="48.02987747" lon="-123.44720697">
				<ele>989.7999877929688</ele>
				<time>2013-11-11T09:14:47Z</time>
				<cmt>speed=0.75</cmt>
				<hdop>17</hdop>
			</trkpt>
			<trkpt lat="48.03029681" lon="-123.44729928">
				<ele>995.5</ele>
				<time>2013-11-11T09:15:56Z</time>
				<cmt>speed=1</cmt>
				<hdop>18</hdop>
			</trkpt>
			<trkpt lat="48.03066285" lon="-123.44828116">
				<ele>962.2999877929688</ele>
				<time>2013-11-11T09:16:47Z</time>
				<cmt>speed=2.3585</cmt>
				<hdop>18</hdop>
			</trkpt>
			<trkpt lat="48.03111845" lon="-123.44876223">
				<ele>1021.0</ele>
				<time>2013-11-11T09:17:47Z</time>
				<cmt>speed=1</cmt>
				<hdop>15</hdop>
			</trkpt>
			<trkpt lat="48.03061805" lon="-123.44919886">
				<ele>1007.5999755859375</ele>
				<time>2013-11-11T09:18:49Z</time>
				<cmt>speed=0.75</cmt>
				<hdop>16</hdop>
			</trkpt>
			<trkpt lat="48.03033067" lon="-123.44974407">
				<ele>1007.5</ele>
				<time>2013-11-11T09:19:46Z</time>
				<cmt>speed=0.559017</cmt>
				<hdop>16</hdop>
			</trkpt>
			<trkpt lat="48.03027757" lon="-123.45034358">
				<ele>995.2000122070313</ele>
				<time>2013-11-11T09:20:47Z</time>
				<cmt>speed=1</cmt>
				<hdop>15</hdop>
			</trkpt>
			<trkpt lat="48.0303785" lon="-123.45048438">
				<ele>988.2999877929688</ele>
				<time>2013-11-11T09:21:50Z</time>
				<cmt>speed=0.559017</cmt>
				<hdop>11</hdop>
			</trkpt>
			<trkpt lat="48.03036458" lon="-123.45049566">
				<ele>1018.7999877929688</ele>
				<time>2013-11-11T09:22:50Z</time>
				<cmt>speed=0.707107</cmt>
				<hdop>12</hdop>
			</trkpt>
			<trkpt lat="48.03003498" lon="-123.45121716">
				<ele>1016.7000122070313</ele>
				<time>2013-11-11T09:23:49Z</time>
				<cmt>speed=1.58114</cmt>
				<hdop>16</hdop>
			</trkpt>
			<trkpt lat="48.02971757" lon="-123.45162034">
				<ele>1019.2000122070313</ele>
				<time>2013-11-11T09:24:53Z</time>
				<cmt>speed=0.901388</cmt>
				<hdop>19</hdop>
			</trkpt>
			<trkpt lat="48.02999205" lon="-123.45159055">
				<ele>1061.699951171875</ele>
				<time>2013-11-11T09:25:52Z</time>
				<cmt>speed=2.82843</cmt>
				<hdop>18</hdop>
			</trkpt>
			<trkpt lat="48.03035764" lon="-123.45059445">
				<ele>1080.0999755859375</ele>
				<time>2013-11-11T09:26:48Z</time>
				<cmt>speed=2.91548</cmt>
				<hdop>17</hdop>
			</trkpt>
			<trkpt lat="48.02974488" lon="-123.45058398">
				<ele>1072.9000244140625</ele>
				<time>2013-11-11T09:27:53Z</time>
				<cmt>speed=0</cmt>
				<hdop>11</hdop>
			</trkpt>
			<trkpt lat="48.02977689" lon="-123.45057707">
				<ele>1022.0999755859375</ele>
				<time>2013-11-11T09:28:54Z</time>
				<cmt>speed=0.901388</cmt>
				<hdop>17</hdop>
			</trkpt>
			<trkpt lat="48.02966813" lon="-123.44992943">
				<ele>1068.5</ele>
				<time>2013-11-11T09:29:53Z</time>
				<cmt>speed=1.25</cmt>
				<hdop>14</hdop>
			</trkpt>
			<trkpt lat="48.02927524" lon="-123.44980027">
				<ele>1047.4000244140625</ele>
				<time>2013-11-11T09:30:53Z</time>
				<cmt>speed=0.901388</cmt>
				<hdop>17</hdop>
			</trkpt>
			<trkpt lat="48.02966894" lon="-123.45082658">
				<ele>1088.300048828125</ele>
				<time>2013-11-11T09:31:56Z</time>
				<cmt>speed=1.60078</cmt>
				<hdop>17</hdop>
			</trkpt>
			<trkpt lat="48.02938622" lon="-123.45005709">
				<ele>1086.5</ele>
				<time>2013-11-11T09:32:55Z</time>
				<cmt>speed=2.30489</cmt>
				<hdop>16</hdop>
			</trkpt>
			<trkpt lat="48.02902506" lon="-123.45067556">
				<ele>1109.699951171875</ele>
				<time>2013-11-11T09:33:53Z</time>
				<cmt>speed=1.25</cmt>
				<hdop>12</hdop>
			</trkpt>
			<trkpt lat="48.02880423" lon="-123.45126239">
				<ele>1066.300048828125</ele>
				<time>2013-11-11T09:34:56Z</time>
				<cmt>speed=0.25</cmt>
				<hdop>15</hdop>
			</trkpt>
			<trkpt lat="48.02874841" lon="-123.45078213">
				<ele>1087.199951171875</ele>
				<time>2013-11-11T09:35:56Z</time>
				<cmt>speed=0</cmt>
				<hdop>12</hdop>
			</trkpt>
			<trkpt lat="48.02886537" lon="-123.45105803">
				<ele>1080.699951171875</ele>
				<time>2013-11-11T09:36:53Z</time>
				<cmt>speed=1.25</cmt>
				<hdop>16</hdop>
			</trkpt>
			<trkpt lat="48.0289145" lon="-123.45098236">
				<ele>1124.0999755859375</ele>
				<time>2013-11-11T09:38:04Z</time>
				<cmt>speed=0</cmt>
				<hdop>15</hdop>
			</trkpt>
			<trkpt lat="48.02894976" lon="-123.45095702">
				<ele>1116.5</ele>
				<time>2013-11-11T09:38:53Z</time>
				<cmt>speed=0</cmt>
				<hdop>17</hdop>
			</trkpt>
			<trkpt lat="48.02869459" lon="-123.45089249">
				<ele>1097.199951171875</ele>
				<time>2013-11-11T09:39:54Z</time>
				<cmt>speed=1.11803</cmt>
				<hdop>19</hdop>
			</trkpt>
			<trkpt lat="48.02861571" lon="-123.45136211">
				<ele>1185.0999755859375</ele>
				<time>2013-11-11T09:41:36Z</time>
				<cmt>speed=0</cmt>
				<hdop>18</hdop>
			</trkpt>
			<trkpt lat="48.02865873" lon="-123.45138315">
				<ele>1177.4000244140625</ele>
				<time>2013-11-11T09:41:53Z</time>
				<cmt>speed=0.75</cmt>
				<hdop>17</hdop>
			</trkpt>
			<trkpt lat="48.02803847" lon="-123.45178715">
				<ele>1182.699951171875</ele>
				<time>2013-11-11T09:43:10Z</time>
				<cmt>speed=1.11803</cmt>
				<hdop>14</hdop>
			</trkpt>
			<trkpt lat="48.02828188" lon="-123.45194975">
				<ele>1161.5</ele>
				<time>2013-11-11T09:44:03Z</time>
				<cmt>speed=0.75</cmt>
				<hdop>17</hdop>
			</trkpt>
			<trkpt lat="48.02750111" lon="-123.45216382">
				<ele>1155.199951171875</ele>
				<time>2013-11-11T09:44:55Z</time>
				<cmt>speed=0.25</cmt>
				<hdop>14</hdop>
			</trkpt>
			<trkpt lat="48.02736227" lon="-123.45286519">
				<ele>1191.300048828125</ele>
				<time>2013-11-11T09:46:01Z</time>
				<cmt>speed=1</cmt>
				<hdop>15</hdop>
			</trkpt>
			<trkpt lat="48.0272338" lon="-123.453286">
				<ele>1158.300048828125</ele>
				<time>2013-11-11T09:46:57Z</time>
				<cmt>speed=0.25</cmt>
				<hdop>14</hdop>
			</trkpt>
			<trkpt lat="48.02698235" lon="-123.45347532">
				<ele>1221.0</ele>
				<time>2013-11-11T09:47:58Z</time>
				<cmt>speed=1.11803</cmt>
				<hdop>17</hdop>
			</trkpt>
			<trkpt lat="48.02688933" lon="-123.45391545">
				<ele>1192.9000244140625</ele>
				<time>2013-11-11T09:48:56Z</time>
				<cmt>speed=0.5</cmt>
				<hdop>19</hdop>
			</trkpt>
			<trkpt lat="48.02675723" lon="-123.45373455">
				<ele>1255.5999755859375</ele>
				<time>2013-11-11T09:50:04Z</time>
				<cmt>speed=1.82003</cmt>
				<hdop>19</hdop>
			</trkpt>
			<trkpt lat="48.0262581" lon="-123.45371933">
				<ele>1186.5999755859375</ele>
				<time>2013-11-11T09:50:58Z</time>
				<cmt>speed=0.75</cmt>
				<hdop>13</hdop>
			</trkpt>
			<trkpt lat="48.02634694" lon="-123.45454398">
				<ele>1214.5</ele>
				<time>2013-11-11T09:52:13Z</time>
				<cmt>speed=1.41421</cmt>
				<hdop>17</hdop>
			</trkpt>
			<trkpt lat="48.02648889" lon="-123.45482703">
				<ele>1239.4000244140625</ele>
				<time>2013-11-11T09:53:06Z</time>
				<cmt>speed=1.80278</cmt>
				<hdop>14</hdop>
			</trkpt>
			<trkpt lat="48.02576252" lon="-123.45476181">
				<ele>1228.5999755859375</ele>
				<time>2013-11-11T09:54:04Z</time>
				<cmt>speed=1.11803</cmt>
				<hdop>16</hdop>
			</trkpt>
			<trkpt lat="48.02597989" lon="-123.45408378">
				<ele>1253.199951171875</ele>
				<time>2013-11-11T09:55:12Z</time>
				<cmt>speed=1.11803</cmt>
				<hdop>14</hdop>
			</trkpt>
			<trkpt lat="48.02569168" lon="-123.45314108">
				<ele>1268.4000244140625</ele>
				<time>2013-11-11T09:56:04Z</time>
				<cmt>speed=3.91312</cmt>
				<hdop>18</hdop>
			</trkpt>
			<trkpt lat="48.02559188" lon="-123.45282712">
				<ele>1277.5999755859375</ele>
				<time>2013-11-11T09:57:00Z</time>
				<cmt>speed=0</cmt>
				<hdop>13</hdop>
			</trkpt>
			<trkpt lat="48.02568814" lon="-123.45282787">
				<ele>1255.9000244140625</ele>
				<time>2013-11-11T10:00:25Z</time>
				<cmt>speed=0.75</cmt>
				<hdop>14</hdop>
			</trkpt>
			<trkpt lat="48.02530015" lon="-123.45289181">
				<ele>1240.300048828125</ele>
				<time>2013-11-11T10:01:00Z</time>
				<cmt>speed=0.901388</cmt>
				<hdop>10</hdop>
			</trkpt>
			<trkpt lat="48.02489504" lon="-123.45266922">
				<ele>1305.5</ele>
				<time>2013-11-11T10:01:59Z</time>
				<cmt>speed=1</cmt>
				<hdop>11</hdop>
			</trkpt>
			<trkpt lat="48.02451029" lon="-123.45323556">
				<ele>1267.699951171875</ele>
				<time>2013-11-11T10:03:00Z</time>
				<cmt>speed=0.75</cmt>
				<hdop>9</hdop>
			</trkpt>
			<trkpt lat="48.02402378" lon="-123.45306389">
				<ele>1295.800048828125</ele>
				<time>2013-11-11T10:03:59Z</time>
				<cmt>speed=1.25</cmt>
				<hdop>13</hdop>
			</trkpt>
			<trkpt lat="48.02384985" lon="-123.45349295">
				<ele>1283.4000244140625</ele>
				<time>2013-11-11T10:05:03Z</time>
				<cmt>speed=2.12132</cmt>
				<hdop>18</hdop>
			</trkpt>
			<trkpt lat="48.02374922" lon="-123.45310372">
				<ele>1349.4000244140625</ele>
				<time>2013-11-11T10:06:01Z</time>
				<cmt>speed=1.11803</cmt>
				<hdop>6</hdop>
			</trkpt>
			<trkpt lat="48.02316441" lon="-123.45293671">
				<ele>1329.199951171875</ele>
				<time>2013-11-11T10:07:01Z</time>
				<cmt>speed=1.11803</cmt>
				<hdop>18</hdop>
			</trkpt>
			<trkpt lat="48.02279035" lon="-123.45354216">
				<ele>1343.5999755859375</ele>
				<time>2013-11-11T10:08:03Z</time>
				<cmt>speed=1.58114</cmt>
				<hdop>14</hdop>
			</trkpt>
			<trkpt lat="48.02245262" lon="-123.45378803">
				<ele>1347.699951171875</ele>
				<time>2013-11-11T10:09:04Z</time>
				<cmt>speed=0.901388</cmt>
				<hdop>11</hdop>
			</trkpt>
			<trkpt lat="48.02222097" lon="-123.45403754">
				<ele>1351.5</ele>
				<time>2013-11-11T10:10:05Z</time>
				<cmt>speed=0.559017</cmt>
				<hdop>15</hdop>
			</trkpt>
			<trkpt lat="48.02202105" lon="-123.45422805">
				<ele>1370.300048828125</ele>
				<time>2013-11-11T10:11:06Z</time>
				<cmt>speed=1.95256</cmt>
				<hdop>12</hdop>
			</trkpt>
			<trkpt lat="48.02149945" lon="-123.45376622">
				<ele>1383.800048828125</ele>
				<time>2013-11-11T10:12:09Z</time>
				<cmt>speed=1.41421</cmt>
				<hdop>19</hdop>
			</trkpt>
			<trkpt lat="48.02158461" lon="-123.45308744">
				<ele>1405.199951171875</ele>
				<time>2013-11-11T10:13:06Z</time>
				<cmt>speed=1.11803</cmt>
				<hdop>13</hdop>
			</trkpt>
			<trkpt lat="48.02127366" lon="-123.45248619">
				<ele>1371.5</ele>
				<time>2013-11-11T10:14:06Z</time>
				<cmt>speed=0.707107</cmt>
				<hdop>14</hdop>
			</trkpt>
			<trkpt lat="48.02137137" lon="-123.45202253">
				<ele>1394.699951171875</ele>
				<time>2013-11-11T10:15:07Z</time>
				<cmt>speed=1.82003</cmt>
				<hdop>15</hdop>
			</trkpt>
			<trkpt lat="48.02116075" lon="-123.4510907">
				<ele>1376.800048828125</ele>
				<time>2013-11-11T10:16:07Z</time>
				<cmt>speed=2.5</cmt>
				<hdop>15</hdop>
			</trkpt>
			<trkpt lat="48.02046564" lon="-123.45092895">
				<ele>1399.300048828125</ele>
				<time>2013-11-11T10:17:06Z</time>
				<cmt>speed=0.901388</cmt>
				<hdop>11</hdop>
			</trkpt>
			<trkpt lat="48.02034826" lon="-123.45112548">
				<ele>1388.800048828125</ele>
				<time>2013-11-11T10:18:11Z</time>
				<cmt>speed=0.707107</cmt>
				<hdop>15</hdop>
			</trkpt>
			<trkpt lat="48.02014922" lon="-123.45117333">
				<ele>1398.199951171875</ele>
				<time>2013-11-11T10:19:06Z</time>
				<cmt>speed=0.75</cmt>
				<hdop>8</hdop>
			</trkpt>
			<trkpt lat="48.0195078" lon="-123.45149562">
				<ele>1404.0999755859375</ele>
				<time>2013-11-11T10:20:08Z</time>
				<cmt>speed=2.12132</cmt>
				<hdop>11</hdop>
			</trkpt>
			<trkpt lat="48.01902785" lon="-123.45120316">
				<ele>1422.5</ele>
				<time>2013-11-11T10:21:07Z</time>
				<cmt>speed=1.03078</cmt>
				<hdop>15</hdop>
			</trkpt>
			<trkpt lat="48.01866494" lon="-123.45115873">
				<ele>1445.800048828125</ele>
				<time>2013-11-11T10:22:08Z</time>
				<cmt>speed=0</cmt>
				<hdop>8</hdop>
			</trkpt>
			<trkpt lat="48.01854359" lon="-123.4516303">
				<ele>1379.800048828125</ele>
				<time>2013-11-11T10:23:09Z</time>
				<cmt>speed=1.11803</cmt>
				<hdop>8</hdop>
			</trkpt>
			<trkpt lat="48.01854244" lon="-123.45149031">
				<ele>1422.300048828125</ele>
				<time>2013-11-11T10:24:08Z</time>
				<cmt>speed=1.11803</cmt>
				<hdop>8</hdop>
			</trkpt>
			<trkpt lat="48.0185034" lon="-123.45145337">
				<ele>1544.0999755859375</ele>
				<time>2013-11-11T10:25:12Z</time>
				<cmt>speed=1.41421</cmt>
				<hdop>18</hdop>
			</trkpt>
			<trkpt lat="48.0184631" lon="-123.45157981">
				<ele>1443.4000244140625</ele>
				<time>2013-11-11T10:26:09Z</time>
				<cmt>speed=1.25</cmt>
				<hdop>17</hdop>
			</trkpt>
			<trkpt lat="48.0177327" lon="-123.45160671">
				<ele>1461.800048828125</ele>
				<time>2013-11-11T10:27:07Z</time>
				<cmt>speed=1.95256</cmt>
				<hdop>9</hdop>
			</trkpt>
			<trkpt lat="48.01736323" lon="-123.45183878">
				<ele>1469.699951171875</ele>
				<time>2013-11-11T10:28:09Z</time>
				<cmt>speed=3.16228</cmt>
				<hdop>17</hdop>
			</trkpt>
			<trkpt lat="48.01670435" lon="-123.45203977">
				<ele>1423.5</ele>
				<time>2013-11-11T10:29:10Z</time>
				<cmt>speed=1.67705</cmt>
				<hdop>12</hdop>
			</trkpt>
			<trkpt lat="48.0162433" lon="-123.45227848">
				<ele>1476.199951171875</ele>
				<time>2013-11-11T10:30:11Z</time>
				<cmt>speed=1.11803</cmt>
				<hdop>15</hdop>
			</trkpt>
			<trkpt lat="48.01615245" lon="-123.45269919">
				<ele>1471.300048828125</ele>
				<time>2013-11-11T10:31:10Z</time>
				<cmt>speed=4.47214</cmt>
				<hdop>14</hdop>
			</trkpt>
			<trkpt lat="48.01603368" lon="-123.45269198">
				<ele>1455.699951171875</ele>
				<time>2013-11-11T10:32:12Z</time>
				<cmt>speed=0.5</cmt>
				<hdop>12</hdop>
			</trkpt>
			<trkpt lat="48.01613951" lon="-123.45234437">
				<ele>1516.300048828125</ele>
				<time>2013-11-11T10:33:12Z</time>
				<cmt>speed=0.5</cmt>
				<hdop>19</hdop>
			</trkpt>
			<trkpt lat="48.01550229" lon="-123.45291715">
				<ele>1454.300048828125</ele>
				<time>2013-11-11T10:34:14Z</time>
				<cmt>speed=1.34629</cmt>
				<hdop>17</hdop>
			</trkpt>
			<trkpt lat="48.01496386" lon="-123.45339518">
				<ele>1472.199951171875</ele>
				<time>2013-11-11T10:35:14Z</time>
				<cmt>speed=1.34629</cmt>
				<hdop>11</hdop>
			</trkpt>
			<trkpt lat="48.01467213" lon="-123.45439063">
				<ele>1426.4000244140625</ele>
				<time>2013-11-11T10:36:14Z</time>
				<cmt>speed=1.11803</cmt>
				<hdop>12</hdop>
			</trkpt>
			<trkpt lat="48.01430941" lon="-123.45461003">
				<ele>1488.5999755859375</ele>
				<time>2013-11-11T10:37:15Z</time>
				<cmt>speed=1.11803</cmt>
				<hdop>11</hdop>
			</trkpt>
			<trkpt lat="48.01389593" lon="-123.45523567">
				<ele>1487.300048828125</ele>
				<time>2013-11-11T10:38:15Z</time>
				<cmt>speed=1.11803</cmt>
				<hdop>7</hdop>
			</trkpt>
			<trkpt lat="48.01370662" lon="-123.45535375">
				<ele>1498.0</ele>
				<time>2013-11-11T10:39:15Z</time>
				<cmt>speed=0.559017</cmt>
				<hdop>14</hdop>
			</trkpt>
			<trkpt lat="48.01373663" lon="-123.45553323">
				<ele>1485.0</ele>
				<time>2013-11-11T10:40:17Z</time>
				<cmt>speed=0</cmt>
				<hdop>11</hdop>
			</trkpt>
			<trkpt lat="48.01351485" lon="-123.45564008">
				<ele>1486.199951171875</ele>
				<time>2013-11-11T10:41:16Z</time>
				<cmt>speed=0.901388</cmt>
				<hdop>7</hdop>
			</trkpt>
			<trkpt lat="48.01322816" lon="-123.45599247">
				<ele>1493.9000244140625</ele>
				<time>2013-11-11T10:42:16Z</time>
				<cmt>speed=1.34629</cmt>
				<hdop>12</hdop>
			</trkpt>
			<trkpt lat="48.01313357" lon="-123.45588111">
				<ele>1527.199951171875</ele>
				<time>2013-11-11T10:43:17Z</time>
				<cmt>speed=0</cmt>
				<hdop>14</hdop>
			</trkpt>
			<trkpt lat="48.01322608" lon="-123.45603476">
				<ele>1535.0999755859375</ele>
				<time>2013-11-11T10:44:17Z</time>
				<cmt>speed=1.34629</cmt>
				<hdop>17</hdop>
			</trkpt>
			<trkpt lat="48.01324239" lon="-123.45622423">
				<ele>1513.9000244140625</ele>
				<time>2013-11-11T10:45:17Z</time>
				<cmt>speed=0.901388</cmt>
				<hdop>9</hdop>
			</trkpt>
			<trkpt lat="48.01325352" lon="-123.45635608">
				<ele>1530.0</ele>
				<time>2013-11-11T10:46:17Z</time>
				<cmt>speed=0.75</cmt>
				<hdop>15</hdop>
			</trkpt>
			<trkpt lat="48.01312658" lon="-123.45653725">
				<ele>1564.800048828125</ele>
				<time>2013-11-11T10:47:14Z</time>
				<cmt>speed=2.91548</cmt>
				<hdop>9</hdop>
			</trkpt>
			<trkpt lat="48.01318266" lon="-123.45693907">
				<ele>1515.0999755859375</ele>
				<time>2013-11-11T10:48:19Z</time>
				<cmt>speed=2</cmt>
				<hdop>11</hdop>
			</trkpt>
			<trkpt lat="48.01300489" lon="-123.45677082">
				<ele>1552.199951171875</ele>
				<time>2013-11-11T10:49:18Z</time>
				<cmt>speed=0.901388</cmt>
				<hdop>11</hdop>
			</trkpt>
			<trkpt lat="48.01279641" lon="-123.45717826">
				<ele>1553.5999755859375</ele>
				<time>2013-11-11T10:50:19Z</time>
				<cmt>speed=0.707107</cmt>
				<hdop>13</hdop>
			</trkpt>
			<trkpt lat="48.01266753" lon="-123.45728851">
				<ele>1550.5999755859375</ele>
				<time>2013-11-11T10:51:20Z</time>
				<cmt>speed=2.01556</cmt>
				<hdop>11</hdop>
			</trkpt>
			<trkpt lat="48.01221658" lon="-123.45747089">
				<ele>1574.300048828125</ele>
				<time>2013-11-11T10:52:18Z</time>
				<cmt>speed=0.707107</cmt>
				<hdop>17</hdop>
			</trkpt>
			<trkpt lat="48.01190334" lon="-123.45744451">
				<ele>1544.800048828125</ele>
				<time>2013-11-11T10:53:19Z</time>
				<cmt>speed=1</cmt>
				<hdop>14</hdop>
			</trkpt>
			<trkpt lat="48.01148828" lon="-123.45726986">
				<ele>1562.0</ele>
				<time>2013-11-11T10:54:20Z</time>
				<cmt>speed=0.75</cmt>
				<hdop>12</hdop>
			</trkpt>
			<trkpt lat="48.01119528" lon="-123.45782785">
				<ele>1604.300048828125</ele>
				<time>2013-11-11T10:55:21Z</time>
				<cmt>speed=1.03078</cmt>
				<hdop>18</hdop>
			</trkpt>
			<trkpt lat="48.01148564" lon="-123.45789806">
				<ele>1604.300048828125</ele>
				<time>2013-11-11T10:56:23Z</time>
				<cmt>speed=0</cmt>
				<hdop>11</hdop>
			</trkpt>
			<trkpt lat="48.01168581" lon="-123.45794012">
				<ele>1580.4000244140625</ele>
				<time>2013-11-11T10:57:22Z</time>
				<cmt>speed=0</cmt>
				<hdop>16</hdop>
			</trkpt>
			<trkpt lat="48.01157722" lon="-123.45779765">
				<ele>1583.5</ele>
				<time>2013-11-11T10:58:21Z</time>
				<cmt>speed=1.60078</cmt>
				<hdop>6</hdop>
			</trkpt>
			<trkpt lat="48.01149718" lon="-123.45784411">
				<ele>1612.0</ele>
				<time>2013-11-11T10:59:29Z</time>
				<cmt>speed=0</cmt>
				<hdop>14</hdop>
			</trkpt>
			<trkpt lat="48.01160985" lon="-123.45806645">
				<ele>1612.5999755859375</ele>
				<time>2013-11-11T11:00:23Z</time>
				<cmt>speed=0.559017</cmt>
				<hdop>16</hdop>
			</trkpt>
			<trkpt lat="48.01148997" lon="-123.45809674">
				<ele>1635.199951171875</ele>
				<time>2013-11-11T11:01:23Z</time>
				<cmt>speed=0.25</cmt>
				<hdop>16</hdop>
			</trkpt>
			<trkpt lat="48.0114781" lon="-123.45772548">
				<ele>1574.9000244140625</ele>
				<time>2013-11-11T11:02:26Z</time>
				<cmt>speed=0.559017</cmt>
				<hdop>16</hdop>
			</trkpt>
			<trkpt lat="48.01152689" lon="-123.45785941">
				<ele>1580.5</ele>
				<time>2013-11-11T11:03:23Z</time>
				<cmt>speed=0.707107</cmt>
				<hdop>10</hdop>
			</trkpt>
			<trkpt lat="48.01147249" lon="-123.45780811">
				<ele>1592.9000244140625</ele>
				<time>2013-11-11T11:04:23Z</time>
				<cmt>speed=0.559017</cmt>
				<hdop>12</hdop>
			</trkpt>
			<trkpt lat="48.01169037" lon="-123.45806366">
				<ele>1580.5</ele>
				<time>2013-11-11T11:05:23Z</time>
				<cmt>speed=0.707107</cmt>
				<hdop>18</hdop>
			</trkpt>
			<trkpt lat="48.01147766" lon="-123.45796148">
				<ele>1597.5999755859375</ele>
				<time>2013-11-11T11:06:25Z</time>
				<cmt>speed=0</cmt>
				<hdop>18</hdop>
			</trkpt>
			<trkpt lat="48.01143656" lon="-123.45837354">
				<ele>1599.5</ele>
				<time>2013-11-11T11:07:25Z</time>
				<cmt>speed=1.25</cmt>
				<hdop>19</hdop>
			</trkpt>
			<trkpt lat="48.01134754" lon="-123.45883869">
				<ele>1604.0</ele>
				<time>2013-11-11T11:08:28Z</time>
				<cmt>speed=1.34629</cmt>
				<hdop>19</hdop>
			</trkpt>
			<trkpt lat="48.01091782" lon="-123.45950244">
				<ele>1587.800048828125</ele>
				<time>2013-11-11T11:09:30Z</time>
				<cmt>speed=1</cmt>
				<hdop>14</hdop>
			</trkpt>
			<trkpt lat="48.0106823" lon="-123.45876653">
				<ele>1634.0999755859375</ele>
				<time>2013-11-11T11:10:28Z</time>
				<cmt>speed=0.559017</cmt>
				<hdop>11</hdop>
			</trkpt>
			<trkpt lat="48.01035949" lon="-123.45901245">
				<ele>1652.0</ele>
				<time>2013-11-11T11:11:32Z</time>
				<cmt>speed=1</cmt>
				<hdop>15</hdop>
			</trkpt>
			<trkpt lat="48.00989814" lon="-123.45933922">
				<ele>1615.4000244140625</ele>
				<time>2013-11-11T11:12:50Z</time>
				<cmt>speed=0.75</cmt>
				<hdop>19</hdop>
			</trkpt>
			<trkpt lat="48.0097146" lon="-123.45891075">
				<ele>1639.9000244140625</ele>
				<time>2013-11-11T11:13:29Z</time>
				<cmt>speed=1.25</cmt>
				<hdop>15</hdop>
			</trkpt>
			<trkpt lat="48.0098136" lon="-123.45900612">
				<ele>1637.300048828125</ele>
				<time>2013-11-11T11:14:32Z</time>
				<cmt>speed=2.92617</cmt>
				<hdop>17</hdop>
			</trkpt>
			<trkpt lat="48.01012468" lon="-123.45938598">
				<ele>1692.0999755859375</ele>
				<time>2013-11-11T11:15:52Z</time>
				<cmt>speed=0</cmt>
				<hdop>16</hdop>
			</trkpt>
			<trkpt lat="48.00984997" lon="-123.45954702">
				<ele>1649.800048828125</ele>
				<time>2013-11-11T11:16:33Z</time>
				<cmt>speed=0.75</cmt>
				<hdop>18</hdop>
			</trkpt>
			<trkpt lat="48.00956108" lon="-123.45922243">
				<ele>1655.0</ele>
				<time>2013-11-11T11:17:33Z</time>
				<cmt>speed=1</cmt>
				<hdop>18</hdop>
			</trkpt>
			<trkpt lat="48.00961647" lon="-123.45962758">
				<ele>1671.699951171875</ele>
				<time>2013-11-11T11:18:34Z</time>
				<cmt>speed=4.272</cmt>
				<hdop>16</hdop>
			</trkpt>
			<trkpt lat="48.00962659" lon="-123.45954344">
				<ele>1697.0999755859375</ele>
				<time>2013-11-11T11:19:30Z</time>
				<cmt>speed=0.5</cmt>
				<hdop>16</hdop>
			</trkpt>
			<trkpt lat="48.01006352" lon="-123.45997406">
				<ele>1659.800048828125</ele>
				<time>2013-11-11T11:20:32Z</time>
				<cmt>speed=1.58114</cmt>
				<hdop>17</hdop>
			</trkpt>
			<trkpt lat="48.00978523" lon="-123.46019583">
				<ele>1683.9000244140625</ele>
				<time>2013-11-11T11:21:31Z</time>
				<cmt>speed=1</cmt>
				<hdop>10</hdop>
			</trkpt>
			<trkpt lat="48.00966423" lon="-123.46060507">
				<ele>1701.5999755859375</ele>
				<time>2013-11-11T11:22:30Z</time>
				<cmt>speed=0.75</cmt>
				<hdop>14</hdop>
			</trkpt>
			<trkpt lat="48.0094499" lon="-123.46073664">
				<ele>1688.4000244140625</ele>
				<time>2013-11-11T11:23:31Z</time>
				<cmt>speed=1.25</cmt>
				<hdop>14</hdop>
			</trkpt>
			<trkpt lat="48.00941324" lon="-123.46160898">
				<ele>1668.4000244140625</ele>
				<time>2013-11-11T11:24:30Z</time>
				<cmt>speed=1</cmt>
				<hdop>8</hdop>
			</trkpt>
			<trkpt lat="48.0093388" lon="-123.46180366">
				<ele>1693.5999755859375</ele>
				<time>2013-11-11T11:25:35Z</time>
				<cmt>speed=0.75</cmt>
				<hdop>9</hdop>
			</trkpt>
			<trkpt lat="48.00937917" lon="-123.46214376">
				<ele>1680.800048828125</ele>
				<time>2013-11-11T11:26:37Z</time>
				<cmt>speed=0.5</cmt>
				<hdop>12</hdop>
			</trkpt>
			<trkpt lat="48.00927319" lon="-123.46184092">
				<ele>1687.800048828125</ele>
				<time>2013-11-11T11:27:34Z</time>
				<cmt>speed=0.559017</cmt>
				<hdop>17</hdop>
			</trkpt>
			<trkpt lat="48.00941024" lon="-123.4620235">
				<ele>1682.800048828125</ele>
				<time>2013-11-11T11:28:36Z</time>
				<cmt>speed=0</cmt>
				<hdop>16</hdop>
			</trkpt>
			<trkpt lat="48.00941467" lon="-123.46184502">
				<ele>1699.800048828125</ele>
				<time>2013-11-11T11:29:34Z</time>
				<cmt>speed=0.25</cmt>
				<hdop>14</hdop>
			</trkpt>
			<trkpt lat="48.00925531" lon="-123.46182507">
				<ele>1691.5999755859375</ele>
				<time>2013-11-11T11:30:33Z</time>
				<cmt>speed=0.25</cmt>
				<hdop>11</hdop>
			</trkpt>
			<trkpt lat="48.00930535" lon="-123.46197897">
				<ele>1697.199951171875</ele>
				<time>2013-11-11T11:31:31Z</time>
				<cmt>speed=2.3585</cmt>
				<hdop>11</hdop>
			</trkpt>
			<trkpt lat="48.00936132" lon="-123.46189259">
				<ele>1689.5</ele>
				<time>2013-11-11T11:32:42Z</time>
				<cmt>speed=0</cmt>
				<hdop>11</hdop>
			</trkpt>
			<trkpt lat="48.00934096" lon="-123.4618664">
				<ele>1689.699951171875</ele>
				<time>2013-11-11T11:34:06Z</time>
				<cmt>speed=0</cmt>
				<hdop>9</hdop>
			</trkpt>
			<trkpt lat="48.00931557" lon="-123.46187082">
				<ele>1688.0</ele>
				<time>2013-11-11T11:34:55Z</time>
				<cmt>speed=0</cmt>
				<hdop>19</hdop>
			</trkpt>
			<trkpt lat="48.00930583" lon="-123.46189977">
				<ele>1685.800048828125</ele>
				<time>2013-11-11T11:35:43Z</time>
				<cmt>speed=0</cmt>
				<hdop>17</hdop>
			</trkpt>
			<trkpt lat="48.00930474" lon="-123.46190918">
				<ele>1684.699951171875</ele>
				<time>2013-11-11T11:36:55Z</time>
				<cmt>speed=0</cmt>
				<hdop>15</hdop>
			</trkpt>
			<trkpt lat="48.00929864" lon="-123.4619109">
				<ele>1684.0999755859375</ele>
				<time>2013-11-11T11:38:08Z</time>
				<cmt>speed=0</cmt>
				<hdop>18</hdop>
			</trkpt>
			<trkpt lat="48.00929672" lon="-123.46191535">
				<ele>1683.5</ele>
				<time>2013-11-11T11:38:40Z</time>
				<cmt>speed=0</cmt>
				<hdop>18</hdop>
			</trkpt>
			<trkpt lat="48.00929236" lon="-123.46192307">
				<ele>1682.5</ele>
				<time>2013-11-11T11:39:42Z</time>
				<cmt>speed=0</cmt>
				<hdop>14</hdop>
			</trkpt>
			<trkpt lat="48.00928407" lon="-123.46191427">
				<ele>1683.4000244140625</ele>
				<time>2013-11-11T11:40:58Z</time>
				<cmt>speed=0</cmt>
				<hdop>17</hdop>
			</trkpt>
			<trkpt lat="48.00933666" lon="-123.46190003">
				<ele>1692.0</ele>
				<time>2013-11-11T11:41:36Z</time>
				<cmt>speed=0</cmt>
				<hdop>8</hdop>
			</trkpt>
			<trkpt lat="48.00945176" lon="-123.46197505">
				<ele>1685.9000244140625</ele>
				<time>2013-11-11T11:42:36Z</time>
				<cmt>speed=0</cmt>
				<hdop>13</hdop>
			</trkpt>
			<trkpt lat="48.00929733" lon="-123.46187487">
				<ele>1702.0999755859375</ele>
				<time>2013-11-11T11:43:34Z</time>
				<cmt>speed=0.5</cmt>
				<hdop>11</hdop>
			</trkpt>
			<trkpt lat="48.00936169" lon="-123.46197224">
				<ele>1676.5999755859375</ele>
				<time>2013-11-11T11:44:33Z</time>
				<cmt>speed=0.5</cmt>
				<hdop>11</hdop>
			</trkpt>
			<trkpt lat="48.009338" lon="-123.46196895">
				<ele>1683.5999755859375</ele>
				<time>2013-11-11T11:45:37Z</time>
				<cmt>speed=0</cmt>
				<hdop>10</hdop>
			</trkpt>
			<trkpt lat="48.00917425" lon="-123.46160999">
				<ele>1709.0999755859375</ele>
				<time>2013-11-11T11:46:37Z</time>
				<cmt>speed=0.75</cmt>
				<hdop>8</hdop>
			</trkpt>
			<trkpt lat="48.00938408" lon="-123.46197498">
				<ele>1697.4000244140625</ele>
				<time>2013-11-11T11:47:37Z</time>
				<cmt>speed=1.60078</cmt>
				<hdop>10</hdop>
			</trkpt>
		</trkseg>
	</trk>
</gpx>